Time;durP1;ratioP1;P1;durP2;ratioP2;P2;SDS_P1;SDS_P2;PMS_P1;PMS_P2;Temp;Humidity;BMP_temperature;BMP_pressure;BME280_temperature;BME280_humidity;BME280_pressure;Samples;Min_cycle;Max_cycle;Signal;HPM_P1;HPM_P2
2021/12/07 00:00:48;;;;;;;19.17;11.32;;;;;;;1.09;71.72;99222.09;4484807;32;33644;-69
2021/12/07 00:03:16;;;;;;;21.75;11.82;;;;;;;0.54;72.07;99208.72;4485175;32;33918;-78
2021/12/07 00:05:44;;;;;;;3.40;1.33;;;;;;;0.56;72.78;99206.69;4484738;32;35186;-85
2021/12/07 00:08:11;;;;;;;19.62;11.07;;;;;;;0.81;72.91;99212.31;4484680;32;33760;-86
2021/12/07 00:10:41;;;;;;;20.73;12.37;;;;;;;0.36;73.66;99213.72;4483832;32;34158;-70
2021/12/07 00:13:10;;;;;;;0.90;0.88;;;;;;;0.97;72.02;99223.69;4476939;32;33540;-73
2021/12/07 00:15:38;;;;;;;21.60;11.88;;;;;;;0.96;71.98;99216.72;4481131;32;34309;-79
2021/12/07 00:18:06;;;;;;;18.67;11.25;;;;;;;0.88;72.13;99219.53;4476788;32;34368;-70
2021/12/07 00:20:34;;;;;;;22.00;12.15;;;;;;;0.75;72.84;99209.63;4483519;32;34704;-73
2021/12/07 00:23:06;;;;;;;20.77;11.55;;;;;;;1.02;71.79;99210.56;4483417;32;34670;-69
2021/12/07 00:25:35;;;;;;;20.35;11.35;;;;;;;0.73;72.93;99220.50;4483270;32;34275;-71
2021/12/07 00:28:03;;;;;;;20.48;11.70;;;;;;;0.93;71.96;99230.44;4483249;32;34151;-70
2021/12/07 00:30:33;;;;;;;21.50;11.82;;;;;;;0.76;72.45;99224.63;4483355;32;33674;-70
2021/12/07 00:35:39;;;;;;;1.02;0.93;;;;;;;1.16;70.71;99228.28;4481303;32;33854;-69
2021/12/07 00:38:14;;;;;;;20.35;11.82;;;;;;;1.36;70.17;99231.03;4476648;32;33897;-72
2021/12/07 00:40:42;;;;;;;21.13;11.67;;;;;;;1.32;70.15;99235.12;4479874;32;33520;-69
2021/12/07 00:43:10;;;;;;;20.35;12.02;;;;;;;1.01;70.94;99228.44;4483522;32;34925;-70
2021/12/07 00:45:40;;;;;;;21.95;12.20;;;;;;;1.25;70.43;99220.09;4481229;32;33859;-73
2021/12/07 00:48:07;;;;;;;23.52;11.88;;;;;;;1.15;69.75;99223.16;4483319;32;34928;-76
2021/12/07 00:50:37;;;;;;;22.02;11.65;;;;;;;0.82;71.30;99227.34;4483277;32;34820;-72
2021/12/07 00:53:05;;;;;;;20.73;11.48;;;;;;;1.03;70.59;99223.72;4483702;32;33914;-79
2021/12/07 00:55:40;;;;;;;21.60;12.27;;;;;;;1.28;69.38;99217.84;4483771;32;34149;-75
2021/12/07 00:58:21;;;;;;;17.83;10.73;;;;;;;0.88;70.78;99224.88;4484530;32;33940;-81
2021/12/07 01:01:04;;;;;;;1.90;0.93;;;;;;;0.82;71.25;99229.16;4484578;32;33574;-69
2021/12/07 01:03:33;;;;;;;22.10;11.27;;;;;;;1.02;70.23;99226.59;4484641;32;33890;-82
2021/12/07 01:06:19;;;;;;;19.85;11.70;;;;;;;0.59;71.91;99219.62;4483856;32;34175;-77
2021/12/07 01:25:18;;;;;;;23.75;12.13;;;;;;;0.68;72.71;99196.25;4484242;32;33475;-81
2021/12/07 01:27:49;;;;;;;1.98;1.77;;;;;;;0.62;73.10;99197.03;4483369;32;34967;-82
2021/12/07 01:30:31;;;;;;;1.08;1.08;;;;;;;0.96;71.44;99206.84;4482960;32;35180;-82
2021/12/07 01:39:52;;;;;;;21.80;12.93;;;;;;;0.89;71.83;99202.50;4494511;31;35064;-74
2021/12/07 01:42:43;;;;;;;23.38;12.45;;;;;;;0.81;72.33;99195.47;4476923;32;34863;-80
2021/12/07 01:47:44;;;;;;;24.48;12.77;;;;;;;0.28;74.63;99200.53;4484220;32;33958;-70
2021/12/07 01:52:39;;;;;;;21.48;12.45;;;;;;;0.87;72.54;99200.03;4483925;32;34694;-82
2021/12/07 02:00:26;;;;;;;23.52;12.85;;;;;;;0.85;71.85;99195.91;4482654;32;33708;-71
2021/12/07 02:02:54;;;;;;;21.23;12.57;;;;;;;0.55;73.29;99197.00;4482915;32;33629;-70
2021/12/07 02:05:22;;;;;;;21.98;11.63;;;;;;;0.36;74.22;99201.19;4483847;32;33447;-69
2021/12/07 02:07:50;;;;;;;22.45;12.13;;;;;;;0.51;73.95;99205.59;4482803;32;33957;-72
2021/12/07 02:10:23;;;;;;;21.75;12.27;;;;;;;0.56;73.90;99209.34;4483948;32;35037;-82
2021/12/07 02:12:55;;;;;;;22.20;12.10;;;;;;;0.64;73.08;99205.66;4484027;32;34607;-82
2021/12/07 02:15:24;;;;;;;22.85;13.10;;;;;;;1.22;71.36;99206.09;4483601;32;34302;-70
2021/12/07 02:17:52;;;;;;;22.62;12.30;;;;;;;1.22;70.51;99205.28;4483682;32;33794;-82
2021/12/07 02:20:21;;;;;;;0.77;0.70;;;;;;;1.32;70.47;99197.72;4498080;31;34291;-69
2021/12/07 02:22:49;;;;;;;23.62;12.50;;;;;;;1.23;70.90;99196.22;4499239;31;34038;-83
2021/12/07 02:25:18;;;;;;;23.10;12.05;;;;;;;1.00;71.27;99197.41;4501059;31;33193;-71
2021/12/07 02:27:47;;;;;;;23.65;12.32;;;;;;;0.34;74.05;99195.22;4487259;31;33905;-84
2021/12/07 02:30:18;;;;;;;24.30;12.32;;;;;;;0.47;73.38;99186.47;4486866;31;33933;-83
2021/12/07 02:32:46;;;;;;;27.48;13.30;;;;;;;1.02;71.97;99189.19;4501638;31;33694;-76
2021/12/07 02:35:22;;;;;;;24.55;12.60;;;;;;;1.01;71.49;99188.34;4501598;31;33657;-76
2021/12/07 02:37:50;;;;;;;22.27;12.65;;;;;;;0.56;72.61;99182.66;4501585;31;34840;-75
2021/12/07 02:40:18;;;;;;;22.15;11.73;;;;;;;0.32;74.19;99183.94;4501459;31;33852;-80
2021/12/07 02:42:46;;;;;;;21.60;12.35;;;;;;;1.07;71.61;99184.06;4487001;31;34340;-73
2021/12/07 02:45:14;;;;;;;24.73;12.52;;;;;;;0.67;72.70;99175.94;4501277;31;34380;-82
2021/12/07 02:47:44;;;;;;;24.27;12.82;;;;;;;0.98;72.17;99183.44;4487461;31;33616;-83
2021/12/07 02:50:13;;;;;;;22.85;12.75;;;;;;;0.51;73.86;99174.41;4487058;31;34861;-72
2021/12/07 02:52:41;;;;;;;24.55;13.57;;;;;;;1.16;71.32;99179.38;4501297;31;33995;-69
2021/12/07 02:55:10;;;;;;;23.33;12.43;;;;;;;0.80;72.37;99170.63;4501289;31;33557;-83
2021/12/07 02:57:37;;;;;;;4.47;2.37;;;;;;;0.53;73.40;99167.00;4486686;31;33978;-72
2021/12/07 03:00:13;;;;;;;22.33;13.25;;;;;;;0.57;73.26;99162.13;4501213;31;35077;-73
2021/12/07 03:02:46;;;;;;;22.02;12.25;;;;;;;0.80;72.58;99165.28;4487400;31;33946;-70
2021/12/07 03:27:30;;;;;;;1.95;1.77;;;;;;;0.88;72.38;99160.78;4500472;31;33483;-82
2021/12/07 03:29:58;;;;;;;23.33;13.25;;;;;;;0.58;71.88;99159.25;4500021;31;33601;-68
2021/12/07 03:32:26;;;;;;;2.17;1.70;;;;;;;0.91;71.87;99166.56;4500271;31;33865;-71
2021/12/07 03:34:53;;;;;;;26.15;14.25;;;;;;;0.97;72.23;99164.91;4500134;31;33890;-68
2021/12/07 03:37:21;;;;;;;25.40;13.98;;;;;;;0.89;71.70;99168.63;4485884;31;33574;-71
2021/12/07 03:39:49;;;;;;;24.25;12.70;;;;;;;1.00;72.07;99165.34;4500334;31;35022;-69
2021/12/07 03:42:17;;;;;;;23.08;13.80;;;;;;;1.27;70.82;99170.75;4499846;31;34619;-70
2021/12/07 03:44:44;;;;;;;25.62;13.27;;;;;;;1.19;71.03;99165.63;4500021;31;33499;-69
2021/12/07 03:47:12;;;;;;;26.10;14.00;;;;;;;1.21;70.44;99161.72;4499836;31;33408;-69
2021/12/07 03:49:40;;;;;;;25.67;13.80;;;;;;;1.00;72.27;99164.53;4500116;31;34750;-69
2021/12/07 03:52:08;;;;;;;0.85;0.77;;;;;;;0.65;73.64;99167.28;4499964;31;34243;-74
2021/12/07 03:54:37;;;;;;;3.55;1.77;;;;;;;1.29;71.46;99176.72;4500134;31;33659;-70
2021/12/07 03:57:05;;;;;;;26.20;13.55;;;;;;;1.47;70.77;99175.31;4499961;31;33474;-69
2021/12/07 03:59:33;;;;;;;23.83;13.85;;;;;;;0.61;73.38;99172.19;4500035;31;34151;-70
2021/12/07 04:02:01;;;;;;;22.62;13.00;;;;;;;1.01;72.15;99182.19;4499700;31;34263;-75
2021/12/07 04:04:29;;;;;;;23.62;12.82;;;;;;;0.90;73.06;99178.25;4500030;31;33736;-72
2021/12/07 04:06:57;;;;;;;23.70;12.63;;;;;;;0.94;72.38;99181.38;4499748;31;33246;-71
2021/12/07 04:09:25;;;;;;;23.75;12.55;;;;;;;1.10;72.18;99177.50;4500117;31;34640;-75
2021/12/07 04:11:54;;;;;;;22.15;13.15;;;;;;;0.96;72.41;99182.81;4499620;31;33930;-72
2021/12/07 04:14:21;;;;;;;23.67;13.07;;;;;;;1.07;71.77;99183.25;4499533;31;35045;-69
2021/12/07 04:16:48;;;;;;;1.58;1.35;;;;;;;1.10;71.89;99177.50;4499519;31;33773;-73
2021/12/07 04:19:16;;;;;;;23.70;13.35;;;;;;;1.01;71.51;99179.53;4497536;31;81208;-76
2021/12/07 04:21:44;;;;;;;22.73;12.52;;;;;;;0.60;73.84;99175.06;4500638;31;34194;-68
2021/12/07 04:24:12;;;;;;;22.95;12.55;;;;;;;0.90;72.37;99180.13;4500761;31;33665;-69
2021/12/07 04:26:40;;;;;;;25.00;13.25;;;;;;;0.92;72.21;99178.06;4500143;31;33560;-69
2021/12/07 04:29:07;;;;;;;0.80;0.70;;;;;;;1.08;70.88;99183.06;4500765;31;33943;-69
2021/12/07 04:31:35;;;;;;;2.67;1.50;;;;;;;0.73;73.38;99191.13;4500356;31;34313;-70
2021/12/07 04:34:03;;;;;;;21.62;12.93;;;;;;;0.86;72.93;99198.38;4500547;31;33942;-69
2021/12/07 04:36:30;;;;;;;24.45;12.75;;;;;;;0.87;72.20;99192.03;4485692;31;34812;-69
2021/12/07 04:38:57;;;;;;;1.15;1.05;;;;;;;0.55;73.82;99194.34;4500002;31;33901;-73
2021/12/07 04:41:31;;;;;;;24.55;13.25;;;;;;;1.23;71.35;99186.37;4500308;31;33860;-69
2021/12/07 04:44:00;;;;;;;1.40;1.15;;;;;;;1.32;70.66;99192.37;4500528;31;33917;-69
2021/12/07 04:46:41;;;;;;;22.27;12.60;;;;;;;1.04;71.26;99195.16;4485660;31;33280;-70
2021/12/07 04:58:00;;;;;;;23.92;13.13;;;;;;;1.26;70.56;99205.72;4482124;32;34433;-69
2021/12/07 05:00:24;;;;;;;7.15;2.20;;;;;;;0.64;72.16;99204.84;4471253;32;34574;-73
2021/12/07 05:02:57;;;;;;;22.33;13.48;;;;;;;0.93;71.73;99206.41;4467875;32;34209;-72
2021/12/07 05:05:29;;;;;;;23.27;13.15;;;;;;;1.27;70.34;99212.69;4467717;32;34855;-69
2021/12/07 05:08:00;;;;;;;23.23;12.50;;;;;;;1.30;69.80;99220.31;4468733;32;33647;-68
2021/12/07 05:10:36;;;;;;;22.35;12.32;;;;;;;0.72;71.92;99213.53;4470762;32;33680;-71
2021/12/07 05:24:03;;;;;;;27.62;15.23;;;;;;;0.47;72.88;99215.03;4469764;32;34824;-71
2021/12/07 05:40:41;;;;;;;4.32;3.75;;;;;;;1.21;70.50;99217.00;4478573;32;33582;-69
2021/12/07 05:43:08;;;;;;;25.30;14.38;;;;;;;1.33;70.34;99222.59;4465412;32;33902;-68
2021/12/07 05:45:39;;;;;;;24.37;13.00;;;;;;;0.61;72.38;99214.09;4484524;32;34103;-70
2021/12/07 05:48:08;;;;;;;24.55;13.95;;;;;;;0.71;72.64;99211.84;4470838;32;33694;-74
2021/12/07 05:50:38;;;;;;;22.13;11.85;;;;;;;0.74;72.65;99210.66;4485010;32;33753;-70
2021/12/07 05:53:07;;;;;;;23.45;13.10;;;;;;;1.15;71.05;99207.94;4485011;32;33528;-74
2021/12/07 05:55:36;;;;;;;27.05;14.48;;;;;;;0.85;71.39;99202.06;4470412;32;34290;-70
2021/12/07 05:58:07;;;;;;;22.48;12.45;;;;;;;1.14;70.32;99206.28;4470831;32;34319;-68
2021/12/07 06:00:36;;;;;;;21.58;12.57;;;;;;;0.81;71.36;99201.66;4484918;32;33607;-68
2021/12/07 06:03:06;;;;;;;1.80;0.88;;;;;;;0.56;71.31;99200.50;4484933;32;33700;-68
2021/12/07 06:05:35;;;;;;;22.23;12.45;;;;;;;0.84;71.39;99195.06;4484862;32;34315;-68
2021/12/07 06:08:03;;;;;;;23.90;13.35;;;;;;;0.86;71.44;99206.38;4484571;32;33749;-68
2021/12/07 06:10:31;;;;;;;1.87;1.20;;;;;;;0.66;70.87;99205.47;4484472;32;34263;-68
2021/12/07 06:12:59;;;;;;;24.10;14.40;;;;;;;1.07;70.03;99205.44;4470541;32;33538;-68
2021/12/07 06:15:31;;;;;;;27.02;15.13;;;;;;;0.76;71.95;99205.94;4470420;32;34271;-70
2021/12/07 06:17:58;;;;;;;22.25;13.27;;;;;;;0.06;73.12;99199.78;4484846;32;33854;-70
2021/12/07 06:20:26;;;;;;;1.83;1.70;;;;;;;0.39;72.99;99200.00;4484784;32;33505;-69
2021/12/07 06:23:13;;;;;;;23.12;12.65;;;;;;;0.59;72.62;99194.78;4484933;32;34751;-69
2021/12/07 06:25:41;;;;;;;22.60;13.62;;;;;;;0.51;72.19;99208.28;4484268;32;33981;-69
2021/12/07 06:28:09;;;;;;;24.60;13.15;;;;;;;0.26;73.77;99198.09;4470036;32;33236;-70
2021/12/07 06:30:45;;;;;;;25.62;14.45;;;;;;;0.45;71.93;99198.38;4484501;32;33295;-68
2021/12/07 06:33:15;;;;;;;0.60;0.60;;;;;;;0.20;73.07;99194.34;4470045;32;33668;-69
2021/12/07 06:35:44;;;;;;;23.75;13.40;;;;;;;0.44;72.21;99207.44;4484358;32;34146;-70
2021/12/07 06:38:11;;;;;;;28.77;14.10;;;;;;;0.64;72.02;99205.66;4467871;32;33848;-69
2021/12/07 06:40:39;;;;;;;0.95;0.80;;;;;;;0.48;71.88;99204.16;4482344;32;34338;-68
2021/12/07 06:43:07;;;;;;;25.40;13.90;;;;;;;0.66;71.66;99205.47;4470068;32;34586;-69
2021/12/07 06:45:34;;;;;;;1.00;0.95;;;;;;;-0.08;73.73;99199.69;4484141;32;33977;-70
2021/12/07 06:48:02;;;;;;;24.63;13.98;;;;;;;0.17;73.00;99207.22;4484231;32;34006;-68
2021/12/07 06:50:29;;;;;;;24.05;13.50;;;;;;;0.45;72.53;99207.19;4484299;32;33305;-71
2021/12/07 06:52:57;;;;;;;23.42;12.63;;;;;;;0.73;71.67;99201.81;4484559;32;34011;-69
2021/12/07 06:55:24;;;;;;;20.80;12.65;;;;;;;0.90;70.83;99215.66;4483786;32;34961;-68
2021/12/07 06:57:52;;;;;;;1.50;1.17;;;;;;;0.16;72.76;99216.28;4484011;32;33405;-69
2021/12/07 07:00:20;;;;;;;0.93;0.93;;;;;;;-0.05;73.17;99211.78;4469888;32;33589;-68
2021/12/07 07:02:48;;;;;;;1.37;0.60;;;;;;;0.03;73.13;99221.50;4484244;32;34791;-69
2021/12/07 07:05:17;;;;;;;22.60;12.65;;;;;;;0.38;72.62;99220.50;4484199;32;34837;-69
2021/12/07 07:07:45;;;;;;;23.67;13.52;;;;;;;0.39;72.55;99219.50;4469914;32;34050;-69
2021/12/07 07:10:15;;;;;;;27.02;14.25;;;;;;;0.31;72.86;99224.16;4484046;32;33368;-68
2021/12/07 07:12:43;;;;;;;26.08;13.75;;;;;;;0.65;71.47;99231.37;4486160;32;34029;-68
2021/12/07 07:15:12;;;;;;;23.65;14.23;;;;;;;0.77;71.22;99228.94;4471974;32;34156;-69
2021/12/07 07:17:40;;;;;;;23.92;13.82;;;;;;;0.90;70.75;99223.66;4486013;32;33961;-68
2021/12/07 07:20:11;;;;;;;26.33;13.95;;;;;;;0.47;71.54;99223.03;4486105;32;33616;-68
2021/12/07 07:22:39;;;;;;;26.08;14.68;;;;;;;0.75;71.28;99222.97;4486257;32;33907;-68
2021/12/07 07:25:07;;;;;;;21.45;12.88;;;;;;;0.89;69.97;99231.91;4471727;32;34558;-69
2021/12/07 07:27:35;;;;;;;23.98;13.80;;;;;;;0.95;70.80;99226.56;4486212;32;34628;-68
2021/12/07 07:30:05;;;;;;;23.83;13.62;;;;;;;0.34;73.05;99223.78;4470626;32;34424;-70
2021/12/07 07:32:32;;;;;;;23.15;12.75;;;;;;;1.02;70.63;99229.28;4486050;32;34700;-69
2021/12/07 07:35:00;;;;;;;22.45;12.15;;;;;;;0.39;71.95;99221.34;4486240;32;33882;-73
2021/12/07 07:37:28;;;;;;;20.05;11.50;;;;;;;1.03;70.46;99220.22;4471624;32;34893;-70
2021/12/07 07:39:55;;;;;;;24.95;13.13;;;;;;;0.85;71.19;99228.78;4485963;32;33701;-73
2021/12/07 07:42:23;;;;;;;21.70;12.25;;;;;;;0.81;70.65;99240.88;4485968;32;34061;-70
2021/12/07 07:44:50;;;;;;;24.08;13.07;;;;;;;0.89;70.53;99239.91;4486075;32;34057;-73
2021/12/07 07:47:18;;;;;;;20.73;12.52;;;;;;;0.42;71.91;99236.16;4486159;32;33955;-70
2021/12/07 07:49:45;;;;;;;22.25;12.00;;;;;;;1.06;70.74;99256.38;4486166;32;33387;-71
2021/12/07 07:52:13;;;;;;;23.48;12.43;;;;;;;0.96;70.53;99243.41;4484882;32;34374;-71
2021/12/07 07:54:40;;;;;;;25.15;13.15;;;;;;;1.58;68.14;99250.41;4469892;32;34223;-70
2021/12/07 07:57:09;;;;;;;25.62;13.45;;;;;;;1.56;68.26;99244.44;4470583;32;34787;-68
2021/12/07 07:59:39;;;;;;;22.77;12.27;;;;;;;1.26;68.22;99248.47;4470014;32;33479;-71
2021/12/07 08:02:07;;;;;;;28.35;14.10;;;;;;;1.12;69.12;99247.59;4468439;32;34098;-73
2021/12/07 08:04:35;;;;;;;24.98;12.90;;;;;;;0.52;70.92;99245.47;4478274;32;34065;-73
2021/12/07 08:07:05;;;;;;;28.85;14.25;;;;;;;0.70;70.82;99252.13;4485455;32;33814;-67
2021/12/07 08:09:32;;;;;;;0.80;0.80;;;;;;;1.29;68.54;99251.53;4485601;32;33538;-73
2021/12/07 08:12:00;;;;;;;25.77;14.27;;;;;;;1.55;67.83;99252.66;4485774;32;34768;-68
2021/12/07 08:14:28;;;;;;;24.58;14.00;;;;;;;1.63;67.48;99261.31;4471470;32;34116;-68
2021/12/07 08:16:55;;;;;;;26.70;14.43;;;;;;;1.71;66.79;99260.31;4484855;32;33961;-66
2021/12/07 08:19:23;;;;;;;2.90;2.60;;;;;;;2.03;66.06;99263.19;4484982;32;32608;-70
2021/12/07 08:21:50;;;;;;;37.03;16.00;;;;;;;1.89;66.61;99265.06;4484387;32;34705;-75
2021/12/07 08:24:18;;;;;;;24.50;12.65;;;;;;;1.97;66.41;99267.53;4471245;32;34212;-70
2021/12/07 08:26:45;;;;;;;21.92;12.90;;;;;;;1.96;66.05;99257.84;4485484;32;34452;-68
2021/12/07 08:29:13;;;;;;;24.65;13.55;;;;;;;1.63;66.63;99260.50;4485357;32;34544;-66
2021/12/07 08:31:40;;;;;;;22.48;12.80;;;;;;;2.31;65.12;99254.13;4485448;32;33729;-68
2021/12/07 08:34:08;;;;;;;0.98;0.98;;;;;;;1.79;66.46;99260.13;4485725;32;34298;-65
2021/12/07 08:36:36;;;;;;;19.62;12.32;;;;;;;2.12;65.96;99264.66;4485755;32;33897;-75
2021/12/07 08:39:05;;;;;;;20.83;11.55;;;;;;;2.13;66.07;99266.28;4485174;32;33444;-73
2021/12/07 08:41:33;;;;;;;23.83;12.68;;;;;;;2.94;63.34;99257.13;4471682;32;33632;-83
2021/12/07 08:44:01;;;;;;;22.00;12.55;;;;;;;3.60;62.42;99260.53;4485493;32;33824;-68
2021/12/07 08:46:28;;;;;;;22.05;12.23;;;;;;;4.57;59.57;99257.50;4485189;32;33771;-77
2021/12/07 08:48:56;;;;;;;17.75;10.70;;;;;;;4.87;58.23;99257.59;4485539;32;33436;-73
2021/12/07 08:51:23;;;;;;;18.05;10.50;;;;;;;4.77;56.59;99252.75;4485380;32;33686;-69
2021/12/07 08:53:58;;;;;;;19.17;11.40;;;;;;;4.31;59.01;99251.34;4471083;32;35105;-68
2021/12/07 09:01:58;;;;;;;18.40;10.32;;;;;;;5.04;56.51;99255.16;4473533;32;34044;-81
2021/12/07 09:04:25;;;;;;;19.10;11.12;;;;;;;5.28;56.53;99250.72;4469607;32;34191;-69
2021/12/07 09:06:53;;;;;;;20.02;11.32;;;;;;;5.05;57.29;99235.28;4485074;32;33737;-68
2021/12/07 09:09:20;;;;;;;19.55;11.43;;;;;;;5.25;55.00;99246.63;4485137;32;34012;-68
2021/12/07 09:11:48;;;;;;;21.80;11.07;;;;;;;4.15;58.16;99244.66;4470996;32;34697;-67
2021/12/07 09:14:18;;;;;;;18.20;9.75;;;;;;;5.39;55.14;99239.19;4485108;32;33941;-68
2021/12/07 09:16:46;;;;;;;19.67;11.77;;;;;;;6.07;54.50;99234.47;4485071;32;34201;-68
2021/12/07 09:19:13;;;;;;;17.27;10.55;;;;;;;5.42;55.82;99238.75;4485094;32;34388;-67
2021/12/07 09:21:41;;;;;;;18.33;10.65;;;;;;;5.04;56.56;99231.78;4484785;32;34071;-70
2021/12/07 09:24:09;;;;;;;20.70;10.75;;;;;;;5.33;56.80;99237.41;4484228;32;33937;-68
2021/12/07 09:26:36;;;;;;;19.92;11.20;;;;;;;5.11;56.78;99237.88;4485501;32;33693;-67
2021/12/07 09:29:05;;;;;;;18.25;10.10;;;;;;;4.85;57.75;99228.25;4485026;32;34368;-67
2021/12/07 09:31:33;;;;;;;29.45;18.45;;;;;;;5.15;55.99;99224.81;4485214;32;34859;-66
2021/12/07 09:34:02;;;;;;;23.98;15.85;;;;;;;5.73;55.16;99223.41;4484715;32;35079;-66
2021/12/07 09:36:29;;;;;;;20.70;10.88;;;;;;;5.72;55.70;99219.91;4484921;32;34483;-66
2021/12/07 09:38:57;;;;;;;21.00;11.50;;;;;;;5.23;56.54;99213.75;4485140;32;34363;-67
2021/12/07 09:41:25;;;;;;;20.67;11.45;;;;;;;4.76;58.10;99216.19;4485088;32;33941;-67
2021/12/07 09:43:53;;;;;;;20.65;11.55;;;;;;;4.15;59.71;99214.28;4484961;32;34090;-66
2021/12/07 09:46:21;;;;;;;20.62;12.27;;;;;;;3.95;59.15;99206.41;4483666;32;33742;-68
2021/12/07 09:48:49;;;;;;;19.27;11.65;;;;;;;3.88;60.08;99198.41;4485127;32;33543;-67
2021/12/07 09:51:19;;;;;;;21.02;12.27;;;;;;;4.66;58.37;99211.31;4484822;32;33471;-68
2021/12/07 09:53:48;;;;;;;21.40;12.15;;;;;;;4.58;58.63;99198.19;4484838;32;35081;-69
2021/12/07 09:56:18;;;;;;;20.85;11.65;;;;;;;4.96;58.05;99191.75;4482116;32;34073;-72
2021/12/07 09:58:48;;;;;;;21.02;12.15;;;;;;;4.97;57.85;99198.78;4484808;32;34731;-71
2021/12/07 10:01:16;;;;;;;21.83;12.50;;;;;;;5.00;57.80;99192.94;4470953;32;34381;-68
2021/12/07 10:03:44;;;;;;;20.90;11.80;;;;;;;5.13;57.79;99186.56;4483384;32;34964;-68
2021/12/07 10:06:12;;;;;;;22.37;12.75;;;;;;;4.42;58.89;99190.69;4484064;32;33887;-71
2021/12/07 10:08:39;;;;;;;21.77;11.73;;;;;;;3.85;60.52;99185.44;4494055;31;33845;-76
2021/12/07 10:11:10;;;;;;;23.42;12.70;;;;;;;4.52;60.00;99183.78;4483362;32;33647;-69
2021/12/07 10:13:40;;;;;;;25.50;13.20;;;;;;;4.83;59.05;99186.53;4484852;32;35055;-68
2021/12/07 10:16:09;;;;;;;24.10;11.48;;;;;;;5.17;58.15;99177.00;4483415;32;33808;-70
2021/12/07 10:18:39;;;;;;;28.40;12.75;;;;;;;5.09;56.71;99171.94;4483135;32;33271;-73
2021/12/07 10:21:18;;;;;;;28.65;13.57;;;;;;;4.39;58.22;99175.03;4483626;32;33647;-68
2021/12/07 10:24:00;;;;;;;23.08;11.85;;;;;;;5.53;56.89;99173.38;4484431;32;34213;-71
2021/12/07 10:26:30;;;;;;;26.95;14.50;;;;;;;5.17;56.22;99170.81;4484380;32;34161;-79
2021/12/07 10:29:19;;;;;;;19.67;11.38;;;;;;;5.01;57.22;99169.56;4484695;32;33509;-66
2021/12/07 10:31:54;;;;;;;21.30;12.63;;;;;;;5.46;55.90;99169.13;4484518;32;34028;-73
2021/12/07 10:34:32;;;;;;;23.10;12.63;;;;;;;5.27;56.07;99168.38;4484224;32;35075;-80
2021/12/07 10:37:14;;;;;;;21.45;12.18;;;;;;;4.31;57.99;99157.34;4484070;32;34615;-67
2021/12/07 10:39:49;;;;;;;22.30;12.30;;;;;;;4.05;60.98;99169.97;4484075;32;34539;-81
2021/12/07 10:42:23;;;;;;;22.90;12.57;;;;;;;4.46;60.17;99165.84;4491151;31;33816;-78
2021/12/07 10:45:05;;;;;;;28.85;14.00;;;;;;;4.52;58.91;99167.66;4478727;32;35191;-75
2021/12/07 10:47:32;;;;;;;24.83;12.73;;;;;;;4.63;59.88;99174.16;4486217;32;33595;-68
2021/12/07 10:50:03;;;;;;;22.75;12.25;;;;;;;3.55;61.63;99177.22;4486749;32;34439;-75
2021/12/07 10:52:38;;;;;;;22.35;11.85;;;;;;;3.50;63.16;99183.22;4472156;32;34006;-76
2021/12/07 10:55:15;;;;;;;22.85;11.88;;;;;;;3.79;62.00;99176.41;4486480;32;34197;-75
2021/12/07 10:57:55;;;;;;;23.62;12.95;;;;;;;3.36;63.13;99171.75;4485885;32;33909;-75
2021/12/07 11:00:25;;;;;;;22.70;12.80;;;;;;;3.67;63.19;99162.87;4486491;32;33432;-74
2021/12/07 11:02:58;;;;;;;22.70;12.63;;;;;;;3.08;63.86;99167.56;4486120;32;34486;-71
2021/12/07 11:05:30;;;;;;;22.83;12.80;;;;;;;3.83;63.54;99174.09;4486376;32;34186;-71
2021/12/07 11:08:00;;;;;;;22.95;12.52;;;;;;;3.51;63.24;99167.94;4485950;32;34055;-70
2021/12/07 11:10:30;;;;;;;21.25;11.95;;;;;;;3.84;62.37;99167.69;4472382;32;33020;-76
2021/12/07 11:13:18;;;;;;;22.98;11.95;;;;;;;3.63;61.90;99169.72;4472301;32;33841;-69
2021/12/07 11:15:54;;;;;;;22.75;12.10;;;;;;;3.33;63.66;99163.34;4486232;32;34095;-76
2021/12/07 11:18:28;;;;;;;21.65;12.10;;;;;;;4.11;61.97;99162.91;4472021;32;34655;-70
2021/12/07 11:21:09;;;;;;;23.38;13.85;;;;;;;4.39;60.41;99154.37;4486013;32;34194;-76
2021/12/07 11:23:42;;;;;;;24.85;13.70;;;;;;;4.25;61.25;99156.34;4483626;32;34040;-86
2021/12/07 11:31:46;;;;;;;21.25;12.57;;;;;;;3.85;61.75;99155.94;4486195;32;34150;-71
2021/12/07 11:34:26;;;;;;;25.33;13.18;;;;;;;3.72;62.29;99158.72;4486556;32;33771;-71
2021/12/07 11:37:07;;;;;;;22.42;12.40;;;;;;;3.52;62.31;99157.00;4485979;32;33811;-74
2021/12/07 11:39:48;;;;;;;21.35;12.70;;;;;;;3.53;62.91;99152.47;4484603;32;34617;-70
2021/12/07 11:42:17;;;;;;;25.10;14.13;;;;;;;3.54;62.32;99156.78;4472402;32;34455;-84
2021/12/07 11:44:57;;;;;;;22.10;13.15;;;;;;;4.65;60.39;99160.50;4472186;32;34673;-78
2021/12/07 11:47:35;;;;;;;22.50;11.82;;;;;;;3.39;62.99;99168.66;4486016;32;35223;-69
2021/12/07 11:50:24;;;;;;;22.13;12.20;;;;;;;4.04;62.36;99162.97;4485209;32;34101;-69
2021/12/07 11:52:56;;;;;;;23.42;12.80;;;;;;;4.30;61.33;99155.72;4485897;32;33604;-72
2021/12/07 11:55:24;;;;;;;22.60;12.70;;;;;;;3.86;61.32;99152.19;4485761;32;34824;-77
2021/12/07 11:57:52;;;;;;;23.40;12.73;;;;;;;3.78;62.93;99150.62;4485047;32;34070;-72
2021/12/07 12:00:23;;;;;;;21.85;12.13;;;;;;;3.70;61.72;99158.94;4484710;32;34647;-78
2021/12/07 12:02:51;;;;;;;23.52;13.25;;;;;;;3.82;61.88;99143.78;4471721;32;34241;-69
2021/12/07 12:05:19;;;;;;;24.35;14.73;;;;;;;2.85;63.92;99154.72;4485609;32;33800;-76
2021/12/07 12:07:48;;;;;;;22.23;13.38;;;;;;;3.04;65.38;99154.81;4468391;32;34159;-72
2021/12/07 12:10:18;;;;;;;43.38;23.70;;;;;;;3.01;64.39;99150.72;4469924;32;34344;-75
2021/12/07 12:12:53;;;;;;;23.70;13.25;;;;;;;2.63;66.21;99138.09;4469939;32;34315;-84
2021/12/07 12:15:43;;;;;;;22.92;13.27;;;;;;;2.87;65.74;99141.09;4455645;32;33701;-84
2021/12/07 12:18:32;;;;;;;23.70;12.48;;;;;;;2.59;65.75;99131.56;4469962;32;34309;-69
2021/12/07 12:21:18;;;;;;;23.48;12.98;;;;;;;2.82;65.69;99139.06;4470171;32;33962;-75
2021/12/07 12:23:59;;;;;;;;;;;;;;;3.70;63.53;99138.28;4468632;31;33572;-86
2021/12/07 12:26:34;;;;;;;;;;;;;;;2.80;65.73;99146.47;4456794;32;34098;-82
2021/12/07 12:29:17;;;;;;;23.45;12.02;;;;;;;2.85;65.56;99143.16;4468203;32;33781;-89
2021/12/07 12:31:56;;;;;;;25.00;13.23;;;;;;;3.04;65.71;99141.41;4468647;32;33680;-84
2021/12/07 12:34:27;;;;;;;22.87;13.70;;;;;;;3.00;65.51;99142.88;4468464;32;33658;-74
2021/12/07 12:36:57;;;;;;;24.52;13.20;;;;;;;2.67;66.99;99144.69;4468367;32;34434;-76
2021/12/07 12:39:43;;;;;;;25.60;13.80;;;;;;;2.38;67.84;99156.75;4468568;32;34308;-69
2021/12/07 12:42:17;;;;;;;27.67;14.57;;;;;;;2.70;67.30;99159.53;4468630;32;35001;-76
2021/12/07 12:44:45;;;;;;;25.70;13.70;;;;;;;2.78;67.24;99169.97;4467292;32;33756;-67
2021/12/07 12:47:12;;;;;;;0.98;0.82;;;;;;;2.47;68.10;99170.72;4468010;32;33450;-73
2021/12/07 12:49:42;;;;;;;27.00;14.25;;;;;;;2.99;66.87;99154.66;4468652;32;33789;-65
2021/12/07 12:52:10;;;;;;;29.75;14.52;;;;;;;3.05;66.77;99164.53;4454477;32;33952;-65
2021/12/07 12:54:44;;;;;;;26.98;14.80;;;;;;;2.73;67.18;99177.84;4468209;32;33320;-72
2021/12/07 12:57:17;;;;;;;24.75;14.10;;;;;;;3.24;65.84;99170.78;4467145;32;34602;-65
2021/12/07 12:59:47;;;;;;;26.62;14.80;;;;;;;3.19;66.01;99178.66;4468484;32;33990;-66
2021/12/07 13:02:17;;;;;;;28.98;15.73;;;;;;;3.47;64.91;99181.78;4454574;32;34593;-71
2021/12/07 13:05:04;;;;;;;32.38;16.48;;;;;;;3.17;65.43;99184.22;4468444;32;33426;-64
2021/12/07 13:07:32;;;;;;;38.65;18.15;;;;;;;2.96;66.81;99195.25;4466795;32;33879;-66
2021/12/07 13:10:00;;;;;;;30.92;16.60;;;;;;;3.19;65.86;99189.38;4468055;32;33814;-67
2021/12/07 13:12:38;;;;;;;1.60;1.50;;;;;;;3.32;65.54;99188.50;4454005;32;33923;-64
2021/12/07 13:15:11;;;;;;;27.37;14.10;;;;;;;2.78;67.22;99183.38;4467212;32;33064;-64
2021/12/07 13:17:39;;;;;;;27.05;15.57;;;;;;;2.56;68.53;99184.69;4467089;32;34281;-67
2021/12/07 13:20:09;;;;;;;29.12;15.40;;;;;;;2.71;67.96;99190.63;4454287;32;33650;-67
2021/12/07 13:22:45;;;;;;;27.70;15.20;;;;;;;2.70;68.25;99188.16;4468491;32;33736;-67
2021/12/07 13:25:24;;;;;;;25.90;14.50;;;;;;;2.86;67.81;99180.47;4467416;32;33631;-67